This is the latest recevied weather packets stored in our database for station/object 9A3SWO. If no packets are shown the sender has not sent any weather packets the latest 10 day(s).
| Time | Temp. | Humidity | Pressure | Rain* | Wind** | Luminosity | Snow |
|---|---|---|---|---|---|---|---|
| 1787903302 | 27.78° C | 54% | 1016.4 hPa | - | - | - | - |
| 1787902701 | 27.22° C | 56% | 1016.5 hPa | - | - | - | - |
| 1787902101 | 27.22° C | 58% | 1016.6 hPa | - | - | - | - |
| 1787901502 | 27.22° C | 57% | 1016.7 hPa | - | - | - | - |
| 1787900901 | 26.67° C | 57% | 1016.6 hPa | - | - | - | - |
| 1787900301 | 26.11° C | 59% | 1016.8 hPa | - | - | - | - |
| 1787899701 | 26.67° C | 57% | 1016.8 hPa | - | - | - | - |
| 1787899101 | 26.11° C | 59% | 1016.9 hPa | - | - | - | - |
| 1787898502 | 25.56° C | 60% | 1016.9 hPa | - | - | - | - |
| 1787897901 | 25° C | 61% | 1016.9 hPa | - | - | - | - |
| 1787897301 | 24.44° C | 63% | 1017 hPa | - | - | - | - |
| 1787896701 | 25° C | 59% | 1016.8 hPa | - | - | - | - |
| 1787896102 | 24.44° C | 61% | 1016.8 hPa | - | - | - | - |
| 1787895502 | 24.44° C | 60% | 1016.8 hPa | - | - | - | - |
| 1787894901 | 24.44° C | 59% | 1016.6 hPa | - | - | - | - |
| 1787894301 | 25° C | 56% | 1016.5 hPa | - | - | - | - |
| 1787893702 | 23.33° C | 60% | 1016.7 hPa | - | - | - | - |
| 1787893100 | 23.89° C | 60% | 1016.5 hPa | - | - | - | - |
| 1787892501 | 23.89° C | 59% | 1016.3 hPa | - | - | - | - |
| 1787891901 | 24.44° C | 57% | 1016.1 hPa | - | - | - | - |
| 1787891301 | 23.89° C | 59% | 1016.1 hPa | - | - | - | - |
| 1787890701 | 23.89° C | 59% | 1016.1 hPa | - | - | - | - |
| 1787890101 | 23.89° C | 59% | 1015.9 hPa | - | - | - | - |
| 1787889501 | 24.44° C | 58% | 1015.9 hPa | - | - | - | - |
| 1787888901 | 24.44° C | 58% | 1015.9 hPa | - | - | - | - |
* Rain since midnight (hover to see other rain measurements)
** Current wind speed in m/s (hover to see current wind gust speed)